sensor_id;sensor_type;location;lat;lon;timestamp;temperature;humidity
7427;DHT22;3755;59.316;18.092;2023-05-19T00:01:44;8.90;99.90
7427;DHT22;3755;59.316;18.092;2023-05-19T00:04:13;8.90;99.90
7427;DHT22;3755;59.316;18.092;2023-05-19T00:06:41;8.80;99.90
7427;DHT22;3755;59.316;18.092;2023-05-19T00:09:10;8.70;99.90
7427;DHT22;3755;59.316;18.092;2023-05-19T00:11:39;8.70;99.90
7427;DHT22;3755;59.316;18.092;2023-05-19T00:14:08;8.70;99.90
7427;DHT22;3755;59.316;18.092;2023-05-19T00:16:36;8.70;99.90
7427;DHT22;3755;59.316;18.092;2023-05-19T00:19:04;8.80;99.90
7427;DHT22;3755;59.316;18.092;2023-05-19T00:21:35;8.80;99.90
7427;DHT22;3755;59.316;18.092;2023-05-19T00:24:04;8.80;99.90
7427;DHT22;3755;59.316;18.092;2023-05-19T00:26:31;8.80;99.90
7427;DHT22;3755;59.316;18.092;2023-05-19T00:29:00;8.80;99.90
7427;DHT22;3755;59.316;18.092;2023-05-19T00:31:27;8.80;99.90
7427;DHT22;3755;59.316;18.092;2023-05-19T00:33:56;8.80;99.90
7427;DHT22;3755;59.316;18.092;2023-05-19T00:36:23;8.80;99.90
7427;DHT22;3755;59.316;18.092;2023-05-19T00:38:51;8.80;99.90
7427;DHT22;3755;59.316;18.092;2023-05-19T00:41:18;8.80;99.90
7427;DHT22;3755;59.316;18.092;2023-05-19T00:43:46;8.70;99.90
7427;DHT22;3755;59.316;18.092;2023-05-19T00:46:14;8.70;99.90
7427;DHT22;3755;59.316;18.092;2023-05-19T00:48:42;8.70;99.90
7427;DHT22;3755;59.316;18.092;2023-05-19T00:51:11;8.60;99.90
7427;DHT22;3755;59.316;18.092;2023-05-19T00:53:41;8.40;99.90
7427;DHT22;3755;59.316;18.092;2023-05-19T00:56:13;8.40;99.90
7427;DHT22;3755;59.316;18.092;2023-05-19T00:58:41;8.40;99.90
7427;DHT22;3755;59.316;18.092;2023-05-19T01:01:09;8.30;99.90
7427;DHT22;3755;59.316;18.092;2023-05-19T01:03:38;8.20;99.90
7427;DHT22;3755;59.316;18.092;2023-05-19T01:06:07;8.20;99.90
7427;DHT22;3755;59.316;18.092;2023-05-19T01:08:36;8.20;99.90
7427;DHT22;3755;59.316;18.092;2023-05-19T01:11:03;8.20;99.90
7427;DHT22;3755;59.316;18.092;2023-05-19T01:13:32;8.20;99.90
7427;DHT22;3755;59.316;18.092;2023-05-19T01:16:03;8.10;99.90
7427;DHT22;3755;59.316;18.092;2023-05-19T01:18:44;7.90;99.90
7427;DHT22;3755;59.316;18.092;2023-05-19T01:27:54;8.00;99.90
7427;DHT22;3755;59.316;18.092;2023-05-19T01:30:33;7.90;99.90
7427;DHT22;3755;59.316;18.092;2023-05-19T01:33:05;7.90;99.90
7427;DHT22;3755;59.316;18.092;2023-05-19T01:35:34;8.00;99.90
7427;DHT22;3755;59.316;18.092;2023-05-19T01:38:03;8.00;99.90
7427;DHT22;3755;59.316;18.092;2023-05-19T01:40:31;8.00;99.90
7427;DHT22;3755;59.316;18.092;2023-05-19T01:43:00;7.90;99.90
7427;DHT22;3755;59.316;18.092;2023-05-19T01:45:31;7.90;99.90
7427;DHT22;3755;59.316;18.092;2023-05-19T01:48:00;7.90;99.90
7427;DHT22;3755;59.316;18.092;2023-05-19T01:50:28;8.00;99.90
7427;DHT22;3755;59.316;18.092;2023-05-19T01:52:57;8.00;99.90
7427;DHT22;3755;59.316;18.092;2023-05-19T01:55:25;8.00;99.90
7427;DHT22;3755;59.316;18.092;2023-05-19T01:58:01;8.00;99.90
7427;DHT22;3755;59.316;18.092;2023-05-19T02:00:41;7.90;99.90
7427;DHT22;3755;59.316;18.092;2023-05-19T02:03:25;7.90;99.90
7427;DHT22;3755;59.316;18.092;2023-05-19T02:05:58;7.80;99.90
7427;DHT22;3755;59.316;18.092;2023-05-19T02:08:32;7.80;99.90
7427;DHT22;3755;59.316;18.092;2023-05-19T02:11:08;7.80;99.90
7427;DHT22;3755;59.316;18.092;2023-05-19T02:13:36;7.70;99.90
7427;DHT22;3755;59.316;18.092;2023-05-19T02:16:06;7.70;99.90
7427;DHT22;3755;59.316;18.092;2023-05-19T02:18:34;7.70;99.90
7427;DHT22;3755;59.316;18.092;2023-05-19T02:21:01;7.60;99.90
7427;DHT22;3755;59.316;18.092;2023-05-19T02:23:28;7.60;99.90
7427;DHT22;3755;59.316;18.092;2023-05-19T02:25:55;7.60;99.90
7427;DHT22;3755;59.316;18.092;2023-05-19T02:28:22;7.70;99.90
7427;DHT22;3755;59.316;18.092;2023-05-19T02:30:52;7.70;99.90
7427;DHT22;3755;59.316;18.092;2023-05-19T02:33:21;7.70;99.90
7427;DHT22;3755;59.316;18.092;2023-05-19T02:35:52;7.70;99.90
7427;DHT22;3755;59.316;18.092;2023-05-19T02:38:19;7.70;99.90
7427;DHT22;3755;59.316;18.092;2023-05-19T02:40:46;7.70;99.90
7427;DHT22;3755;59.316;18.092;2023-05-19T02:43:13;7.80;99.90
7427;DHT22;3755;59.316;18.092;2023-05-19T02:45:40;7.80;99.90
7427;DHT22;3755;59.316;18.092;2023-05-19T02:48:08;7.80;99.90
7427;DHT22;3755;59.316;18.092;2023-05-19T02:50:36;7.80;99.90
7427;DHT22;3755;59.316;18.092;2023-05-19T02:53:04;7.80;99.90
7427;DHT22;3755;59.316;18.092;2023-05-19T02:55:31;7.80;99.90
7427;DHT22;3755;59.316;18.092;2023-05-19T02:57:58;7.80;99.90
7427;DHT22;3755;59.316;18.092;2023-05-19T03:00:26;7.80;99.90
7427;DHT22;3755;59.316;18.092;2023-05-19T03:02:53;7.80;99.90
7427;DHT22;3755;59.316;18.092;2023-05-19T03:05:27;7.90;99.90
7427;DHT22;3755;59.316;18.092;2023-05-19T03:07:56;7.90;99.90
7427;DHT22;3755;59.316;18.092;2023-05-19T03:10:23;8.00;99.90
7427;DHT22;3755;59.316;18.092;2023-05-19T03:12:50;8.10;99.90
7427;DHT22;3755;59.316;18.092;2023-05-19T03:15:17;8.10;99.90
7427;DHT22;3755;59.316;18.092;2023-05-19T03:17:45;8.20;99.90
7427;DHT22;3755;59.316;18.092;2023-05-19T03:20:12;8.30;99.90
7427;DHT22;3755;59.316;18.092;2023-05-19T03:22:41;8.40;99.90
7427;DHT22;3755;59.316;18.092;2023-05-19T03:25:09;8.50;99.90
7427;DHT22;3755;59.316;18.092;2023-05-19T03:27:37;8.50;99.90
7427;DHT22;3755;59.316;18.092;2023-05-19T03:30:05;8.60;99.90
7427;DHT22;3755;59.316;18.092;2023-05-19T03:32:32;8.90;99.90
7427;DHT22;3755;59.316;18.092;2023-05-19T03:35:02;8.90;99.90
7427;DHT22;3755;59.316;18.092;2023-05-19T03:37:30;8.90;99.90
7427;DHT22;3755;59.316;18.092;2023-05-19T03:39:58;8.90;99.90
7427;DHT22;3755;59.316;18.092;2023-05-19T03:42:27;9.10;99.90
7427;DHT22;3755;59.316;18.092;2023-05-19T03:44:54;9.40;99.90
7427;DHT22;3755;59.316;18.092;2023-05-19T03:47:21;9.30;99.90
7427;DHT22;3755;59.316;18.092;2023-05-19T03:49:48;9.30;99.90
7427;DHT22;3755;59.316;18.092;2023-05-19T03:52:16;9.30;99.90
7427;DHT22;3755;59.316;18.092;2023-05-19T03:54:43;9.30;99.90
7427;DHT22;3755;59.316;18.092;2023-05-19T03:57:10;9.80;99.90
7427;DHT22;3755;59.316;18.092;2023-05-19T03:59:39;10.10;99.90
7427;DHT22;3755;59.316;18.092;2023-05-19T04:02:06;10.80;99.90
7427;DHT22;3755;59.316;18.092;2023-05-19T04:04:34;12.00;99.90
7427;DHT22;3755;59.316;18.092;2023-05-19T04:07:02;11.90;99.90
7427;DHT22;3755;59.316;18.092;2023-05-19T04:09:29;11.40;99.90
7427;DHT22;3755;59.316;18.092;2023-05-19T04:11:59;12.00;99.90
7427;DHT22;3755;59.316;18.092;2023-05-19T04:14:27;12.90;99.90
7427;DHT22;3755;59.316;18.092;2023-05-19T04:16:56;13.70;99.90
7427;DHT22;3755;59.316;18.092;2023-05-19T04:19:23;13.10;99.90
7427;DHT22;3755;59.316;18.092;2023-05-19T04:21:51;12.90;99.90
7427;DHT22;3755;59.316;18.092;2023-05-19T04:24:20;13.00;99.90
7427;DHT22;3755;59.316;18.092;2023-05-19T04:26:48;12.90;99.90
7427;DHT22;3755;59.316;18.092;2023-05-19T04:29:16;13.20;99.90
7427;DHT22;3755;59.316;18.092;2023-05-19T04:31:44;13.40;99.90
7427;DHT22;3755;59.316;18.092;2023-05-19T04:34:13;13.70;99.90
7427;DHT22;3755;59.316;18.092;2023-05-19T04:36:40;13.50;99.90
7427;DHT22;3755;59.316;18.092;2023-05-19T04:39:08;13.50;99.90
7427;DHT22;3755;59.316;18.092;2023-05-19T04:41:37;13.60;99.90
7427;DHT22;3755;59.316;18.092;2023-05-19T04:44:09;13.90;99.90
7427;DHT22;3755;59.316;18.092;2023-05-19T04:46:38;13.40;99.90
7427;DHT22;3755;59.316;18.092;2023-05-19T04:49:07;13.30;99.90
7427;DHT22;3755;59.316;18.092;2023-05-19T04:51:38;14.20;99.90
7427;DHT22;3755;59.316;18.092;2023-05-19T04:54:06;14.30;99.90
7427;DHT22;3755;59.316;18.092;2023-05-19T04:56:33;13.80;99.90
7427;DHT22;3755;59.316;18.092;2023-05-19T04:59:01;13.30;99.90
7427;DHT22;3755;59.316;18.092;2023-05-19T05:01:28;13.40;99.90
7427;DHT22;3755;59.316;18.092;2023-05-19T05:03:57;13.20;99.90
7427;DHT22;3755;59.316;18.092;2023-05-19T05:06:27;13.40;99.90
7427;DHT22;3755;59.316;18.092;2023-05-19T05:08:55;13.30;99.90
7427;DHT22;3755;59.316;18.092;2023-05-19T05:11:23;13.30;99.90
7427;DHT22;3755;59.316;18.092;2023-05-19T05:13:51;13.60;99.90
7427;DHT22;3755;59.316;18.092;2023-05-19T05:16:20;13.40;99.90
7427;DHT22;3755;59.316;18.092;2023-05-19T05:18:48;13.20;99.90
7427;DHT22;3755;59.316;18.092;2023-05-19T05:21:15;13.10;99.90
7427;DHT22;3755;59.316;18.092;2023-05-19T05:23:43;12.80;99.90
7427;DHT22;3755;59.316;18.092;2023-05-19T05:26:16;13.00;99.90
7427;DHT22;3755;59.316;18.092;2023-05-19T05:28:45;13.10;99.90
7427;DHT22;3755;59.316;18.092;2023-05-19T05:31:13;13.10;99.90
7427;DHT22;3755;59.316;18.092;2023-05-19T05:33:40;13.20;99.90
7427;DHT22;3755;59.316;18.092;2023-05-19T05:36:08;13.10;99.90
7427;DHT22;3755;59.316;18.092;2023-05-19T05:38:35;13.10;99.90
7427;DHT22;3755;59.316;18.092;2023-05-19T05:41:02;13.10;99.90
7427;DHT22;3755;59.316;18.092;2023-05-19T05:43:32;13.20;99.90
7427;DHT22;3755;59.316;18.092;2023-05-19T05:45:59;13.10;99.90
7427;DHT22;3755;59.316;18.092;2023-05-19T05:48:27;13.10;99.90
7427;DHT22;3755;59.316;18.092;2023-05-19T05:50:55;13.20;99.90
7427;DHT22;3755;59.316;18.092;2023-05-19T05:53:25;13.10;99.90
7427;DHT22;3755;59.316;18.092;2023-05-19T05:55:55;13.30;99.90
7427;DHT22;3755;59.316;18.092;2023-05-19T05:58:22;13.30;99.90
7427;DHT22;3755;59.316;18.092;2023-05-19T06:00:51;13.40;99.90
7427;DHT22;3755;59.316;18.092;2023-05-19T06:03:22;13.40;99.90
7427;DHT22;3755;59.316;18.092;2023-05-19T06:05:50;13.40;99.90
7427;DHT22;3755;59.316;18.092;2023-05-19T06:08:17;13.40;99.90
7427;DHT22;3755;59.316;18.092;2023-05-19T06:10:44;13.60;99.90
7427;DHT22;3755;59.316;18.092;2023-05-19T06:13:12;13.70;99.90
7427;DHT22;3755;59.316;18.092;2023-05-19T06:15:40;13.80;99.90
7427;DHT22;3755;59.316;18.092;2023-05-19T06:18:10;13.90;99.90
7427;DHT22;3755;59.316;18.092;2023-05-19T06:20:37;14.00;99.90
7427;DHT22;3755;59.316;18.092;2023-05-19T06:23:05;14.10;99.00
7427;DHT22;3755;59.316;18.092;2023-05-19T06:25:32;14.20;98.70
7427;DHT22;3755;59.316;18.092;2023-05-19T06:27:59;14.40;98.40
7427;DHT22;3755;59.316;18.092;2023-05-19T06:30:28;14.50;97.30
7427;DHT22;3755;59.316;18.092;2023-05-19T06:32:55;14.50;96.10
7427;DHT22;3755;59.316;18.092;2023-05-19T06:35:24;14.60;95.70
7427;DHT22;3755;59.316;18.092;2023-05-19T06:37:51;14.70;95.20
7427;DHT22;3755;59.316;18.092;2023-05-19T06:40:20;14.70;94.80
7427;DHT22;3755;59.316;18.092;2023-05-19T06:42:48;14.80;94.50
7427;DHT22;3755;59.316;18.092;2023-05-19T06:45:16;14.80;94.10
7427;DHT22;3755;59.316;18.092;2023-05-19T06:47:46;14.90;93.70
7427;DHT22;3755;59.316;18.092;2023-05-19T06:50:14;15.00;93.50
7427;DHT22;3755;59.316;18.092;2023-05-19T06:52:42;15.10;93.20
7427;DHT22;3755;59.316;18.092;2023-05-19T06:55:11;15.30;92.40
7427;DHT22;3755;59.316;18.092;2023-05-19T06:57:39;15.40;90.60
7427;DHT22;3755;59.316;18.092;2023-05-19T07:00:09;15.30;89.20
7427;DHT22;3755;59.316;18.092;2023-05-19T07:02:37;15.30;89.00
7427;DHT22;3755;59.316;18.092;2023-05-19T07:05:05;15.10;89.60
7427;DHT22;3755;59.316;18.092;2023-05-19T07:07:33;15.20;89.80
7427;DHT22;3755;59.316;18.092;2023-05-19T07:10:01;15.20;89.30
7427;DHT22;3755;59.316;18.092;2023-05-19T07:12:29;15.30;89.00
7427;DHT22;3755;59.316;18.092;2023-05-19T07:14:56;15.50;88.80
7427;DHT22;3755;59.316;18.092;2023-05-19T07:17:23;15.60;89.80
7427;DHT22;3755;59.316;18.092;2023-05-19T07:19:50;15.70;89.80
7427;DHT22;3755;59.316;18.092;2023-05-19T07:22:18;15.60;89.60
7427;DHT22;3755;59.316;18.092;2023-05-19T07:24:45;15.30;89.50
7427;DHT22;3755;59.316;18.092;2023-05-19T07:27:14;15.60;89.60
7427;DHT22;3755;59.316;18.092;2023-05-19T07:29:41;15.70;88.90
7427;DHT22;3755;59.316;18.092;2023-05-19T07:32:08;15.80;88.90
7427;DHT22;3755;59.316;18.092;2023-05-19T07:34:36;15.80;87.80
7427;DHT22;3755;59.316;18.092;2023-05-19T07:37:03;15.90;87.10
7427;DHT22;3755;59.316;18.092;2023-05-19T07:39:32;15.90;87.20
7427;DHT22;3755;59.316;18.092;2023-05-19T07:42:00;16.00;86.20
7427;DHT22;3755;59.316;18.092;2023-05-19T07:44:28;16.00;86.40
7427;DHT22;3755;59.316;18.092;2023-05-19T07:46:57;16.10;86.10
7427;DHT22;3755;59.316;18.092;2023-05-19T07:49:24;16.20;86.00
7427;DHT22;3755;59.316;18.092;2023-05-19T07:51:51;16.30;85.40
7427;DHT22;3755;59.316;18.092;2023-05-19T07:54:19;16.30;85.20
7427;DHT22;3755;59.316;18.092;2023-05-19T07:56:46;16.30;84.80
7427;DHT22;3755;59.316;18.092;2023-05-19T07:59:14;16.30;84.20
7427;DHT22;3755;59.316;18.092;2023-05-19T08:01:43;16.50;83.90
7427;DHT22;3755;59.316;18.092;2023-05-19T08:04:11;16.50;82.90
7427;DHT22;3755;59.316;18.092;2023-05-19T08:06:38;16.50;82.60
7427;DHT22;3755;59.316;18.092;2023-05-19T08:09:07;16.40;82.40
7427;DHT22;3755;59.316;18.092;2023-05-19T08:11:35;16.30;82.20
7427;DHT22;3755;59.316;18.092;2023-05-19T08:14:02;16.20;82.10
7427;DHT22;3755;59.316;18.092;2023-05-19T08:16:30;16.30;81.80
7427;DHT22;3755;59.316;18.092;2023-05-19T08:18:59;16.40;81.40
7427;DHT22;3755;59.316;18.092;2023-05-19T08:21:28;16.50;80.70
7427;DHT22;3755;59.316;18.092;2023-05-19T08:23:59;16.40;80.00
7427;DHT22;3755;59.316;18.092;2023-05-19T08:26:27;16.60;80.20
7427;DHT22;3755;59.316;18.092;2023-05-19T08:28:55;16.70;79.60
7427;DHT22;3755;59.316;18.092;2023-05-19T08:31:22;16.90;79.20
7427;DHT22;3755;59.316;18.092;2023-05-19T08:33:49;16.90;78.70
7427;DHT22;3755;59.316;18.092;2023-05-19T08:36:18;16.90;78.40
7427;DHT22;3755;59.316;18.092;2023-05-19T08:38:46;16.70;78.40
7427;DHT22;3755;59.316;18.092;2023-05-19T08:41:14;16.80;79.10
7427;DHT22;3755;59.316;18.092;2023-05-19T08:43:41;17.00;78.60
7427;DHT22;3755;59.316;18.092;2023-05-19T08:46:10;17.10;78.70
7427;DHT22;3755;59.316;18.092;2023-05-19T08:48:42;17.00;77.50
7427;DHT22;3755;59.316;18.092;2023-05-19T08:51:16;16.90;77.30
7427;DHT22;3755;59.316;18.092;2023-05-19T08:53:51;16.90;77.70
7427;DHT22;3755;59.316;18.092;2023-05-19T08:56:21;17.00;77.60
7427;DHT22;3755;59.316;18.092;2023-05-19T08:58:50;17.20;77.00
7427;DHT22;3755;59.316;18.092;2023-05-19T09:01:19;16.90;77.10
7427;DHT22;3755;59.316;18.092;2023-05-19T09:03:48;17.00;77.50
7427;DHT22;3755;59.316;18.092;2023-05-19T09:06:16;17.20;76.80
7427;DHT22;3755;59.316;18.092;2023-05-19T09:08:43;17.30;76.10
7427;DHT22;3755;59.316;18.092;2023-05-19T09:11:13;17.30;76.00
7427;DHT22;3755;59.316;18.092;2023-05-19T09:13:40;17.30;75.60
7427;DHT22;3755;59.316;18.092;2023-05-19T09:16:08;17.10;75.80
7427;DHT22;3755;59.316;18.092;2023-05-19T09:18:38;16.90;74.90
7427;DHT22;3755;59.316;18.092;2023-05-19T09:21:06;17.00;75.60
7427;DHT22;3755;59.316;18.092;2023-05-19T09:23:35;17.10;75.20
7427;DHT22;3755;59.316;18.092;2023-05-19T09:26:03;17.00;74.60
7427;DHT22;3755;59.316;18.092;2023-05-19T09:28:34;17.10;74.70
7427;DHT22;3755;59.316;18.092;2023-05-19T09:31:03;17.20;74.60
7427;DHT22;3755;59.316;18.092;2023-05-19T09:33:32;17.20;74.30
7427;DHT22;3755;59.316;18.092;2023-05-19T09:36:01;17.30;74.80
7427;DHT22;3755;59.316;18.092;2023-05-19T09:38:31;17.40;74.90
7427;DHT22;3755;59.316;18.092;2023-05-19T09:40:59;17.40;73.50
7427;DHT22;3755;59.316;18.092;2023-05-19T09:43:29;17.40;74.00
7427;DHT22;3755;59.316;18.092;2023-05-19T09:46:05;17.30;74.60
7427;DHT22;3755;59.316;18.092;2023-05-19T09:48:33;17.30;74.90
7427;DHT22;3755;59.316;18.092;2023-05-19T09:51:01;17.30;75.60
7427;DHT22;3755;59.316;18.092;2023-05-19T09:53:30;17.30;75.60
7427;DHT22;3755;59.316;18.092;2023-05-19T09:55:57;17.30;75.70
7427;DHT22;3755;59.316;18.092;2023-05-19T09:58:25;17.30;75.00
7427;DHT22;3755;59.316;18.092;2023-05-19T10:00:53;17.30;75.50
7427;DHT22;3755;59.316;18.092;2023-05-19T10:03:23;17.50;75.90
7427;DHT22;3755;59.316;18.092;2023-05-19T10:05:52;17.40;75.90
7427;DHT22;3755;59.316;18.092;2023-05-19T10:08:19;17.30;75.80
7427;DHT22;3755;59.316;18.092;2023-05-19T10:10:49;17.40;75.50
7427;DHT22;3755;59.316;18.092;2023-05-19T10:13:16;17.40;75.20
7427;DHT22;3755;59.316;18.092;2023-05-19T10:15:46;17.50;75.40
7427;DHT22;3755;59.316;18.092;2023-05-19T10:18:15;17.70;74.80
7427;DHT22;3755;59.316;18.092;2023-05-19T10:20:45;17.90;74.90
7427;DHT22;3755;59.316;18.092;2023-05-19T10:23:13;17.50;74.50
7427;DHT22;3755;59.316;18.092;2023-05-19T10:25:41;17.50;74.60
7427;DHT22;3755;59.316;18.092;2023-05-19T10:28:12;17.70;75.20
7427;DHT22;3755;59.316;18.092;2023-05-19T10:30:41;17.60;73.80
7427;DHT22;3755;59.316;18.092;2023-05-19T10:33:12;17.90;73.60
7427;DHT22;3755;59.316;18.092;2023-05-19T10:36:08;17.90;72.70
7427;DHT22;3755;59.316;18.092;2023-05-19T10:38:41;18.00;73.00
7427;DHT22;3755;59.316;18.092;2023-05-19T10:41:23;18.10;73.40
7427;DHT22;3755;59.316;18.092;2023-05-19T10:43:57;18.20;73.20
7427;DHT22;3755;59.316;18.092;2023-05-19T10:46:28;17.80;72.50
7427;DHT22;3755;59.316;18.092;2023-05-19T10:48:56;17.70;73.60
7427;DHT22;3755;59.316;18.092;2023-05-19T10:51:29;17.70;72.80
7427;DHT22;3755;59.316;18.092;2023-05-19T10:53:57;17.60;72.90
7427;DHT22;3755;59.316;18.092;2023-05-19T10:56:28;17.80;73.90
7427;DHT22;3755;59.316;18.092;2023-05-19T10:58:57;17.90;71.50
7427;DHT22;3755;59.316;18.092;2023-05-19T11:01:30;18.00;71.40
7427;DHT22;3755;59.316;18.092;2023-05-19T11:04:04;18.00;72.30
7427;DHT22;3755;59.316;18.092;2023-05-19T11:06:33;17.90;73.00
7427;DHT22;3755;59.316;18.092;2023-05-19T11:09:12;18.20;73.50
7427;DHT22;3755;59.316;18.092;2023-05-19T11:11:48;18.30;71.80
7427;DHT22;3755;59.316;18.092;2023-05-19T11:14:17;18.30;72.00
7427;DHT22;3755;59.316;18.092;2023-05-19T11:16:46;18.20;72.20
7427;DHT22;3755;59.316;18.092;2023-05-19T11:19:18;17.50;71.70
7427;DHT22;3755;59.316;18.092;2023-05-19T11:21:51;17.60;72.80
7427;DHT22;3755;59.316;18.092;2023-05-19T11:24:42;17.90;72.90
7427;DHT22;3755;59.316;18.092;2023-05-19T11:27:20;18.10;71.60
7427;DHT22;3755;59.316;18.092;2023-05-19T11:29:48;18.20;70.90
7427;DHT22;3755;59.316;18.092;2023-05-19T11:32:16;18.30;70.90
7427;DHT22;3755;59.316;18.092;2023-05-19T11:34:44;18.30;70.60
7427;DHT22;3755;59.316;18.092;2023-05-19T11:37:14;18.30;71.00
7427;DHT22;3755;59.316;18.092;2023-05-19T11:39:41;18.20;71.30
7427;DHT22;3755;59.316;18.092;2023-05-19T11:42:09;18.30;71.20
7427;DHT22;3755;59.316;18.092;2023-05-19T11:44:37;18.40;70.80
7427;DHT22;3755;59.316;18.092;2023-05-19T11:47:06;18.50;70.40
7427;DHT22;3755;59.316;18.092;2023-05-19T11:49:33;18.50;69.10
7427;DHT22;3755;59.316;18.092;2023-05-19T11:52:00;18.30;69.30
7427;DHT22;3755;59.316;18.092;2023-05-19T11:54:34;18.30;68.90
7427;DHT22;3755;59.316;18.092;2023-05-19T11:57:13;18.50;69.20
7427;DHT22;3755;59.316;18.092;2023-05-19T11:59:41;18.30;69.40
7427;DHT22;3755;59.316;18.092;2023-05-19T12:02:16;18.30;69.30
7427;DHT22;3755;59.316;18.092;2023-05-19T12:04:43;18.40;68.10
7427;DHT22;3755;59.316;18.092;2023-05-19T12:07:11;18.20;67.50
7427;DHT22;3755;59.316;18.092;2023-05-19T12:09:41;18.10;66.90
7427;DHT22;3755;59.316;18.092;2023-05-19T12:12:08;18.00;66.40
7427;DHT22;3755;59.316;18.092;2023-05-19T12:14:37;17.90;66.70
7427;DHT22;3755;59.316;18.092;2023-05-19T12:17:11;17.90;66.30
7427;DHT22;3755;59.316;18.092;2023-05-19T12:19:39;17.60;66.00
7427;DHT22;3755;59.316;18.092;2023-05-19T12:22:07;17.50;65.90
7427;DHT22;3755;59.316;18.092;2023-05-19T12:24:36;17.50;66.60
7427;DHT22;3755;59.316;18.092;2023-05-19T12:27:12;17.70;66.20
7427;DHT22;3755;59.316;18.092;2023-05-19T12:29:40;17.70;66.00
7427;DHT22;3755;59.316;18.092;2023-05-19T12:32:09;17.80;66.40
7427;DHT22;3755;59.316;18.092;2023-05-19T12:34:37;17.80;65.70
7427;DHT22;3755;59.316;18.092;2023-05-19T12:37:05;17.90;65.70
7427;DHT22;3755;59.316;18.092;2023-05-19T12:39:33;17.70;65.70
7427;DHT22;3755;59.316;18.092;2023-05-19T12:42:01;17.60;66.00
7427;DHT22;3755;59.316;18.092;2023-05-19T12:44:30;17.70;66.90
7427;DHT22;3755;59.316;18.092;2023-05-19T12:47:00;17.90;66.60
7427;DHT22;3755;59.316;18.092;2023-05-19T12:49:35;18.10;67.20
7427;DHT22;3755;59.316;18.092;2023-05-19T12:52:04;18.20;66.50
7427;DHT22;3755;59.316;18.092;2023-05-19T12:54:32;18.00;65.60
7427;DHT22;3755;59.316;18.092;2023-05-19T12:57:00;18.20;66.00
7427;DHT22;3755;59.316;18.092;2023-05-19T12:59:28;18.10;65.30
7427;DHT22;3755;59.316;18.092;2023-05-19T13:01:59;18.00;65.50
7427;DHT22;3755;59.316;18.092;2023-05-19T13:04:27;18.10;65.50
7427;DHT22;3755;59.316;18.092;2023-05-19T13:06:55;18.00;65.30
7427;DHT22;3755;59.316;18.092;2023-05-19T13:09:22;17.70;65.30
7427;DHT22;3755;59.316;18.092;2023-05-19T13:11:49;17.70;65.70
7427;DHT22;3755;59.316;18.092;2023-05-19T13:14:18;17.70;66.00
7427;DHT22;3755;59.316;18.092;2023-05-19T13:16:48;17.60;65.80
7427;DHT22;3755;59.316;18.092;2023-05-19T13:19:17;17.70;66.60
7427;DHT22;3755;59.316;18.092;2023-05-19T13:21:45;17.90;66.60
7427;DHT22;3755;59.316;18.092;2023-05-19T13:24:14;18.00;66.60
7427;DHT22;3755;59.316;18.092;2023-05-19T13:26:42;18.00;65.90
7427;DHT22;3755;59.316;18.092;2023-05-19T13:29:09;17.80;65.90
7427;DHT22;3755;59.316;18.092;2023-05-19T13:31:36;17.80;66.30
7427;DHT22;3755;59.316;18.092;2023-05-19T13:34:06;17.70;65.70
7427;DHT22;3755;59.316;18.092;2023-05-19T13:36:33;17.60;66.00
7427;DHT22;3755;59.316;18.092;2023-05-19T13:39:01;17.50;66.30
7427;DHT22;3755;59.316;18.092;2023-05-19T13:41:28;17.60;66.20
7427;DHT22;3755;59.316;18.092;2023-05-19T13:43:57;17.40;66.00
7427;DHT22;3755;59.316;18.092;2023-05-19T13:46:24;17.30;66.20
7427;DHT22;3755;59.316;18.092;2023-05-19T13:48:52;17.40;66.30
7427;DHT22;3755;59.316;18.092;2023-05-19T13:51:21;17.40;66.30
7427;DHT22;3755;59.316;18.092;2023-05-19T13:53:48;17.30;66.60
7427;DHT22;3755;59.316;18.092;2023-05-19T13:56:15;17.00;66.20
7427;DHT22;3755;59.316;18.092;2023-05-19T13:58:43;17.10;66.30
7427;DHT22;3755;59.316;18.092;2023-05-19T14:01:10;17.00;66.80
7427;DHT22;3755;59.316;18.092;2023-05-19T14:03:37;16.90;67.50
7427;DHT22;3755;59.316;18.092;2023-05-19T14:06:05;16.90;67.30
7427;DHT22;3755;59.316;18.092;2023-05-19T14:08:36;16.60;67.10
7427;DHT22;3755;59.316;18.092;2023-05-19T14:11:03;16.70;67.90
7427;DHT22;3755;59.316;18.092;2023-05-19T14:13:31;16.80;67.60
7427;DHT22;3755;59.316;18.092;2023-05-19T14:15:59;16.90;66.90
7427;DHT22;3755;59.316;18.092;2023-05-19T14:18:27;16.80;66.50
7427;DHT22;3755;59.316;18.092;2023-05-19T14:20:54;16.60;66.60
7427;DHT22;3755;59.316;18.092;2023-05-19T14:23:21;16.70;67.00
7427;DHT22;3755;59.316;18.092;2023-05-19T14:25:50;17.00;67.50
7427;DHT22;3755;59.316;18.092;2023-05-19T14:28:18;17.10;66.40
7427;DHT22;3755;59.316;18.092;2023-05-19T14:30:45;16.90;66.00
7427;DHT22;3755;59.316;18.092;2023-05-19T14:33:13;17.00;66.70
7427;DHT22;3755;59.316;18.092;2023-05-19T14:35:41;17.00;66.60
7427;DHT22;3755;59.316;18.092;2023-05-19T14:38:08;17.00;66.50
7427;DHT22;3755;59.316;18.092;2023-05-19T14:40:37;16.90;66.30
7427;DHT22;3755;59.316;18.092;2023-05-19T14:43:07;16.80;66.70
7427;DHT22;3755;59.316;18.092;2023-05-19T14:45:34;16.90;66.80
7427;DHT22;3755;59.316;18.092;2023-05-19T14:48:02;16.80;67.10
7427;DHT22;3755;59.316;18.092;2023-05-19T14:50:30;16.70;67.30
7427;DHT22;3755;59.316;18.092;2023-05-19T14:52:57;16.60;68.00
7427;DHT22;3755;59.316;18.092;2023-05-19T14:55:24;16.70;68.20
7427;DHT22;3755;59.316;18.092;2023-05-19T14:57:52;16.90;68.50
7427;DHT22;3755;59.316;18.092;2023-05-19T15:00:20;17.00;68.50
7427;DHT22;3755;59.316;18.092;2023-05-19T15:02:50;16.90;68.40
7427;DHT22;3755;59.316;18.092;2023-05-19T15:05:18;16.90;68.70
7427;DHT22;3755;59.316;18.092;2023-05-19T15:07:47;17.00;68.80
7427;DHT22;3755;59.316;18.092;2023-05-19T15:10:15;17.10;68.60
7427;DHT22;3755;59.316;18.092;2023-05-19T15:12:45;17.00;68.40
7427;DHT22;3755;59.316;18.092;2023-05-19T15:15:12;17.10;68.60
7427;DHT22;3755;59.316;18.092;2023-05-19T15:17:41;17.10;67.50
7427;DHT22;3755;59.316;18.092;2023-05-19T15:20:11;17.00;67.50
7427;DHT22;3755;59.316;18.092;2023-05-19T15:22:39;16.70;67.30
7427;DHT22;3755;59.316;18.092;2023-05-19T15:25:07;16.70;67.90
7427;DHT22;3755;59.316;18.092;2023-05-19T15:27:36;16.70;67.50
7427;DHT22;3755;59.316;18.092;2023-05-19T15:30:05;16.60;66.80
7427;DHT22;3755;59.316;18.092;2023-05-19T15:32:32;16.50;66.80
7427;DHT22;3755;59.316;18.092;2023-05-19T15:35:01;16.50;66.90
7427;DHT22;3755;59.316;18.092;2023-05-19T15:37:28;16.40;66.90
7427;DHT22;3755;59.316;18.092;2023-05-19T15:39:56;16.40;67.40
7427;DHT22;3755;59.316;18.092;2023-05-19T15:42:23;16.20;66.80
7427;DHT22;3755;59.316;18.092;2023-05-19T15:44:51;16.10;66.50
7427;DHT22;3755;59.316;18.092;2023-05-19T15:47:18;16.00;67.50
7427;DHT22;3755;59.316;18.092;2023-05-19T15:49:45;16.00;67.90
7427;DHT22;3755;59.316;18.092;2023-05-19T15:52:14;16.10;68.80
7427;DHT22;3755;59.316;18.092;2023-05-19T15:54:41;16.30;69.00
7427;DHT22;3755;59.316;18.092;2023-05-19T15:57:09;16.50;68.40
7427;DHT22;3755;59.316;18.092;2023-05-19T15:59:38;16.50;68.50
7427;DHT22;3755;59.316;18.092;2023-05-19T16:02:05;16.40;69.00
7427;DHT22;3755;59.316;18.092;2023-05-19T16:04:33;16.50;69.30
7427;DHT22;3755;59.316;18.092;2023-05-19T16:07:00;17.10;69.20